createdAt,value
2022-12-17T00:00:40.014Z,96703.28
2022-12-17T00:02:00.174Z,96699.47
2022-12-17T00:03:20.629Z,96692.94
2022-12-17T00:04:48.483Z,96683.75
2022-12-17T00:06:10.970Z,96688.72
2022-12-17T00:07:31.282Z,96696.00
2022-12-17T00:08:51.186Z,96692.09
2022-12-17T00:10:17.830Z,96681.34
2022-12-17T00:11:37.747Z,96695.22
2022-12-17T00:12:57.594Z,96697.13
2022-12-17T00:14:17.947Z,96691.41
2022-12-17T00:15:37.722Z,96695.66
2022-12-17T00:16:57.662Z,96686.91
2022-12-17T00:18:25.464Z,96684.47
2022-12-17T00:19:45.390Z,96677.19
2022-12-17T00:21:17.461Z,96684.13
2022-12-17T00:22:37.441Z,96684.03
2022-12-17T00:23:57.606Z,96667.47
2022-12-17T00:25:17.371Z,96672.84
2022-12-17T00:26:39.113Z,96676.31
2022-12-17T00:27:59.842Z,96671.28
2022-12-17T00:29:19.731Z,96671.53
2022-12-17T00:30:39.626Z,96670.44
2022-12-17T00:31:59.664Z,96679.16
2022-12-17T00:33:19.449Z,96670.69
2022-12-17T00:34:39.430Z,96669.13
2022-12-17T00:35:59.687Z,96677.09
2022-12-17T00:37:19.993Z,96673.19
2022-12-17T00:38:47.969Z,96666.00
2022-12-17T00:40:07.707Z,96661.25
2022-12-17T00:41:27.469Z,96672.50
2022-12-17T00:42:47.311Z,96670.94
2022-12-17T00:44:07.742Z,96657.91
2022-12-17T00:45:28.272Z,96666.16
2022-12-17T00:46:48.759Z,96660.00
2022-12-17T00:48:08.651Z,96661.50
2022-12-17T00:49:28.465Z,96667.63
2022-12-17T00:50:48.098Z,96643.88
2022-12-17T00:52:07.955Z,96668.53
2022-12-17T00:53:28.867Z,96668.53
2022-12-17T00:54:48.708Z,96653.19
2022-12-17T00:56:08.722Z,96656.19
2022-12-17T00:57:29.726Z,96667.09
2022-12-17T00:58:50.156Z,96679.03
2022-12-17T01:00:10.058Z,96660.19
2022-12-17T01:01:30.381Z,96658.44
2022-12-17T01:02:50.585Z,96656.19
2022-12-17T01:04:10.706Z,96673.53
2022-12-17T01:05:32.181Z,96679.00
2022-12-17T01:06:53.151Z,96670.16
2022-12-17T01:08:13.861Z,96678.22
2022-12-17T01:09:33.757Z,96672.22
2022-12-17T01:10:54.612Z,96667.22
2022-12-17T01:12:16.437Z,96672.06
2022-12-17T01:13:37.594Z,96663.13
2022-12-17T01:14:57.692Z,96665.72
2022-12-17T01:16:41.842Z,96677.19
2022-12-17T01:18:02.003Z,96645.78
2022-12-17T01:19:22.083Z,96624.97
2022-12-17T01:20:42.405Z,96655.75
2022-12-17T01:22:04.151Z,96658.09
2022-12-17T01:23:26.979Z,96670.44
2022-12-17T01:24:47.521Z,96671.97
2022-12-17T01:26:15.438Z,96657.66
2022-12-17T01:27:35.874Z,96657.13
2022-12-17T01:28:55.794Z,96669.38
2022-12-17T01:30:16.605Z,96659.75
2022-12-17T01:31:36.973Z,96663.47
2022-12-17T01:32:57.127Z,96650.75
2022-12-17T01:34:17.192Z,96655.34
2022-12-17T01:35:37.540Z,96671.47
2022-12-17T01:36:57.337Z,96651.94
2022-12-17T01:38:17.196Z,96633.72
2022-12-17T01:39:36.973Z,96647.94
2022-12-17T01:40:57.131Z,96641.00
2022-12-17T01:42:16.958Z,96649.06
2022-12-17T01:43:54.912Z,96642.16
2022-12-17T01:45:15.362Z,96628.72
2022-12-17T01:46:36.193Z,96645.25
2022-12-17T01:48:07.837Z,96640.66
2022-12-17T01:49:29.088Z,96645.25
2022-12-17T01:50:53.067Z,96640.34
2022-12-17T01:52:13.853Z,96638.44
2022-12-17T01:53:37.010Z,96653.44
2022-12-17T01:54:58.515Z,96634.69
2022-12-17T01:56:18.956Z,96650.91
2022-12-17T01:57:39.391Z,96646.31
2022-12-17T01:59:00.222Z,96652.81
2022-12-17T02:00:25.431Z,96651.59
2022-12-17T02:01:46.594Z,96640.84
2022-12-17T02:03:06.854Z,96649.69
2022-12-17T02:04:27.988Z,96657.75
2022-12-17T02:06:00.361Z,96653.59
2022-12-17T02:07:52.138Z,96656.19
2022-12-17T02:09:31.351Z,96638.50
2022-12-17T02:11:03.054Z,96655.50
2022-12-17T02:12:35.723Z,96647.09
2022-12-17T02:14:00.600Z,96652.81
2022-12-17T02:15:37.743Z,96650.22
2022-12-17T02:17:09.479Z,96651.69
2022-12-17T02:18:36.680Z,96644.75
2022-12-17T02:20:17.924Z,96638.69
2022-12-17T02:21:40.261Z,96641.72
2022-12-17T02:23:27.170Z,96638.69
2022-12-17T02:24:54.601Z,96639.97
2022-12-17T02:26:56.681Z,96637.13
2022-12-17T02:28:16.638Z,96642.50
2022-12-17T02:29:40.115Z,96637.91
2022-12-17T02:31:00.535Z,96645.25
2022-12-17T02:32:22.874Z,96646.03
2022-12-17T02:33:43.148Z,96658.78
2022-12-17T02:35:05.805Z,96654.63
2022-12-17T02:36:26.752Z,96661.13
2022-12-17T02:37:47.018Z,96643.53
2022-12-17T02:39:07.394Z,96647.34
2022-12-17T02:40:27.693Z,96650.44
2022-12-17T02:41:51.269Z,96654.97
2022-12-17T02:43:11.844Z,96653.41
2022-12-17T02:44:35.507Z,96646.63
2022-12-17T02:45:55.960Z,96653.59
2022-12-17T02:47:17.093Z,96648.91
2022-12-17T02:48:37.516Z,96638.56
2022-12-17T02:49:57.872Z,96645.00
2022-12-17T02:51:18.423Z,96642.22
2022-12-17T02:52:39.801Z,96649.59
2022-12-17T02:54:02.075Z,96654.28
2022-12-17T02:55:23.446Z,96652.28
2022-12-17T02:56:43.368Z,96641.97
2022-12-17T02:58:03.449Z,96641.19
2022-12-17T02:59:23.287Z,96642.66
2022-12-17T03:00:43.363Z,96656.53
2022-12-17T03:02:03.958Z,96645.78
2022-12-17T03:03:24.225Z,96650.03
2022-12-17T03:04:44.357Z,96644.66
2022-12-17T03:06:04.249Z,96643.78
2022-12-17T03:07:24.700Z,96638.75
2022-12-17T03:08:44.580Z,96639.19
2022-12-17T03:10:04.653Z,96634.16
2022-12-17T03:11:24.774Z,96641.09
2022-12-17T03:12:44.605Z,96629.19
2022-12-17T03:14:04.372Z,96627.28
2022-12-17T03:15:25.078Z,96625.75
2022-12-17T03:16:45.070Z,96617.31
2022-12-17T03:18:05.138Z,96610.38
2022-12-17T03:19:25.529Z,96611.09
2022-12-17T03:20:45.512Z,96610.81
2022-12-17T03:22:05.672Z,96609.69
2022-12-17T03:23:29.290Z,96601.19
2022-12-17T03:24:49.735Z,96599.72
2022-12-17T03:26:10.740Z,96596.66
2022-12-17T03:27:31.211Z,96616.19
2022-12-17T03:28:58.661Z,96598.09
2022-12-17T03:30:19.264Z,96608.84
2022-12-17T03:31:39.761Z,96609.53
2022-12-17T03:33:00.306Z,96604.59
2022-12-17T03:34:20.442Z,96608.84
2022-12-17T03:35:40.792Z,96608.84
2022-12-17T03:37:00.584Z,96613.44
2022-12-17T03:38:20.426Z,96588.88
2022-12-17T03:39:40.314Z,96597.38
2022-12-17T03:41:00.166Z,96588.19
2022-12-17T03:42:33.612Z,96583.47
2022-12-17T03:43:53.652Z,96593.13
2022-12-17T03:45:13.644Z,96592.72
2022-12-17T03:46:33.781Z,96571.88
2022-12-17T03:47:53.863Z,96585.75
2022-12-17T03:49:13.640Z,96583.16
2022-12-17T03:50:33.979Z,96582.03
2022-12-17T03:51:54.210Z,96589.75
2022-12-17T03:53:14.562Z,96591.28
2022-12-17T03:54:34.726Z,96589.03
2022-12-17T03:55:54.785Z,96590.69
2022-12-17T03:57:16.502Z,96602.56
2022-12-17T03:58:36.500Z,96595.97
2022-12-17T03:59:56.362Z,96587.47
2022-12-17T04:01:16.741Z,96597.88
2022-12-17T04:02:36.791Z,96584.44
2022-12-17T04:03:57.098Z,96596.84
2022-12-17T04:05:20.276Z,96600.31
2022-12-17T04:06:57.784Z,96603.50
2022-12-17T04:08:17.971Z,96609.66
2022-12-17T04:09:38.425Z,96606.19
2022-12-17T04:10:58.253Z,96609.06
2022-12-17T04:12:18.465Z,96603.31
2022-12-17T04:13:41.110Z,96609.06
2022-12-17T04:15:01.498Z,96612.59
2022-12-17T04:16:21.815Z,96606.50
2022-12-17T04:17:42.251Z,96611.38
2022-12-17T04:19:02.246Z,96613.22
2022-12-17T04:20:23.131Z,96605.59
2022-12-17T04:21:43.615Z,96601.66
2022-12-17T04:23:06.052Z,96593.78
2022-12-17T04:24:25.851Z,96612.94
2022-12-17T04:25:45.878Z,96597.31
2022-12-17T04:27:06.110Z,96588.13
2022-12-17T04:28:26.334Z,96588.13
2022-12-17T04:29:47.044Z,96593.13
2022-12-17T04:31:07.177Z,96579.66
2022-12-17T04:32:32.321Z,96576.63
2022-12-17T04:33:55.009Z,96565.59
2022-12-17T04:35:15.111Z,96555.59
2022-12-17T04:36:35.125Z,96562.22
2022-12-17T04:37:55.338Z,96569.84
2022-12-17T04:39:15.514Z,96558.25
2022-12-17T04:40:36.021Z,96556.69
2022-12-17T04:41:59.577Z,96541.72
2022-12-17T04:43:30.683Z,96563.34
2022-12-17T04:44:51.115Z,96551.06
2022-12-17T04:46:11.612Z,96570.69
2022-12-17T04:47:31.474Z,96563.91
2022-12-17T04:48:51.452Z,96582.31
2022-12-17T04:50:11.238Z,96573.09
2022-12-17T04:51:31.039Z,96570.91
2022-12-17T04:52:51.513Z,96587.69
2022-12-17T04:54:11.352Z,96583.88
2022-12-17T04:55:31.412Z,96570.00
2022-12-17T04:56:51.174Z,96587.00
2022-12-17T04:58:10.913Z,96601.66
2022-12-17T04:59:30.734Z,96603.28
2022-12-17T05:01:07.443Z,96595.19
2022-12-17T05:02:27.861Z,96588.28
2022-12-17T05:03:48.271Z,96589.81
2022-12-17T05:05:08.229Z,96607.13
2022-12-17T05:06:28.797Z,96599.13
2022-12-17T05:07:48.638Z,96609.69
2022-12-17T05:09:08.418Z,96621.31
2022-12-17T05:10:28.216Z,96621.31
2022-12-17T05:11:48.544Z,96620.63
2022-12-17T05:13:16.032Z,96622.88
2022-12-17T05:14:36.314Z,96634.78
2022-12-17T05:15:56.139Z,96639.88
2022-12-17T05:17:16.280Z,96640.03
2022-12-17T05:18:36.109Z,96654.56
2022-12-17T05:19:56.025Z,96651.81
2022-12-17T05:21:16.010Z,96634.09
2022-12-17T05:22:36.137Z,96640.56
2022-12-17T05:23:56.513Z,96643.66
2022-12-17T05:25:16.332Z,96636.28
2022-12-17T05:26:41.826Z,96627.09
2022-12-17T05:28:01.860Z,96631.19
2022-12-17T05:29:22.299Z,96626.94
2022-12-17T05:30:42.368Z,96625.03
2022-12-17T05:32:02.434Z,96627.72
2022-12-17T05:33:22.643Z,96630.34
2022-12-17T05:34:43.688Z,96628.34
2022-12-17T05:36:03.673Z,96627.81
2022-12-17T05:37:23.723Z,96638.25
2022-12-17T05:38:43.626Z,96635.63
2022-12-17T05:40:07.825Z,96642.94
2022-12-17T05:41:30.917Z,96624.97
2022-12-17T05:42:51.109Z,96642.03
2022-12-17T05:44:11.152Z,96658.53
2022-12-17T05:45:31.479Z,96643.25
2022-12-17T05:46:51.317Z,96639.44
2022-12-17T05:48:29.696Z,96648.34
2022-12-17T05:49:49.894Z,96661.38
2022-12-17T05:51:10.050Z,96654.84
2022-12-17T05:52:30.536Z,96674.16
2022-12-17T05:53:50.498Z,96666.75
2022-12-17T05:55:10.712Z,96668.31
2022-12-17T05:56:30.574Z,96676.31
2022-12-17T05:57:54.672Z,96679.94
2022-12-17T05:59:16.412Z,96686.81
2022-12-17T06:00:36.827Z,96688.72
2022-12-17T06:01:56.841Z,96672.91
2022-12-17T06:03:21.981Z,96666.84
2022-12-17T06:04:42.285Z,96676.41
2022-12-17T06:06:02.435Z,96686.44
2022-12-17T06:07:22.754Z,96694.78
2022-12-17T06:08:42.717Z,96698.78
2022-12-17T06:10:02.581Z,96696.56
2022-12-17T06:11:22.525Z,96697.34
2022-12-17T06:12:42.699Z,96706.19
2022-12-17T06:14:03.383Z,96707.75
2022-12-17T06:15:24.159Z,96699.25
2022-12-17T06:16:44.152Z,96700.34
2022-12-17T06:18:16.885Z,96708.69
2022-12-17T06:19:37.143Z,96700.09
2022-12-17T06:20:57.528Z,96697.75
2022-12-17T06:22:37.415Z,96694.72
2022-12-17T06:23:57.654Z,96699.69
2022-12-17T06:25:18.019Z,96699.31
2022-12-17T06:26:38.052Z,96704.72
2022-12-17T06:27:57.975Z,96703.59
2022-12-17T06:29:17.744Z,96700.09
2022-12-17T06:30:38.146Z,96700.19
2022-12-17T06:31:57.968Z,96705.56
2022-12-17T06:33:29.815Z,96698.72
2022-12-17T06:34:49.657Z,96713.38
2022-12-17T06:36:12.026Z,96705.72
2022-12-17T06:37:34.585Z,96700.34
2022-12-17T06:38:54.459Z,96692.09
2022-12-17T06:40:14.341Z,96696.00
2022-12-17T06:41:34.314Z,96708.34
2022-12-17T06:42:54.175Z,96712.09
2022-12-17T06:44:14.106Z,96719.81
2022-12-17T06:45:34.414Z,96721.66
2022-12-17T06:46:54.511Z,96720.53
2022-12-17T06:48:26.445Z,96728.25
2022-12-17T06:49:46.459Z,96738.25
2022-12-17T06:51:06.746Z,96734.38
2022-12-17T06:52:26.716Z,96737.53
2022-12-17T06:53:46.907Z,96742.19
2022-12-17T06:55:06.941Z,96745.59
2022-12-17T06:56:27.165Z,96751.44
2022-12-17T06:57:50.302Z,96753.75
2022-12-17T06:59:10.804Z,96758.78
2022-12-17T07:00:31.355Z,96768.44
2022-12-17T07:01:51.452Z,96765.75
2022-12-17T07:03:16.109Z,96760.78
2022-12-17T07:04:36.960Z,96759.31
2022-12-17T07:05:56.902Z,96765.66
2022-12-17T07:07:17.378Z,96768.47
2022-12-17T07:08:37.279Z,96768.75
2022-12-17T07:09:57.171Z,96759.09
2022-12-17T07:11:20.735Z,96766.50
2022-12-17T07:12:40.630Z,96765.38
2022-12-17T07:14:00.581Z,96768.19
2022-12-17T07:15:20.578Z,96763.25
2022-12-17T07:16:41.123Z,96780.44
2022-12-17T07:18:00.902Z,96783.25
2022-12-17T07:19:26.790Z,96796.88
2022-12-17T07:20:47.606Z,96804.41
2022-12-17T07:22:07.845Z,96809.94
2022-12-17T07:23:28.181Z,96817.03
2022-12-17T07:24:48.264Z,96820.25
2022-12-17T07:26:08.353Z,96817.94
2022-12-17T07:27:28.634Z,96811.22
2022-12-17T07:28:48.682Z,96813.50
2022-12-17T07:30:08.623Z,96815.91
2022-12-17T07:31:28.662Z,96810.09
2022-12-17T07:32:48.796Z,96805.25
2022-12-17T07:34:08.918Z,96810.34
2022-12-17T07:35:28.769Z,96801.06
2022-12-17T07:36:53.416Z,96805.69
2022-12-17T07:38:18.663Z,96811.09
2022-12-17T07:39:38.959Z,96826.81
2022-12-17T07:40:59.055Z,96828.69
2022-12-17T07:42:19.195Z,96835.00
2022-12-17T07:43:39.485Z,96841.94
2022-12-17T07:44:59.880Z,96838.69
2022-12-17T07:46:20.321Z,96838.38
2022-12-17T07:47:40.537Z,96844.56
2022-12-17T07:49:00.522Z,96839.19
2022-12-17T07:50:20.313Z,96839.88
2022-12-17T07:51:40.284Z,96846.81
2022-12-17T07:53:00.193Z,96852.94
2022-12-17T07:54:20.043Z,96850.66
2022-12-17T07:55:39.916Z,96844.97
2022-12-17T07:56:59.827Z,96837.31
2022-12-17T07:58:24.591Z,96836.25
2022-12-17T07:59:44.445Z,96826.09
2022-12-17T08:01:04.343Z,96819.47
2022-12-17T08:02:24.516Z,96808.16
2022-12-17T08:03:44.625Z,96804.25
2022-12-17T08:05:04.881Z,96797.22
2022-12-17T08:06:25.356Z,96791.00
2022-12-17T08:07:45.459Z,96792.47
2022-12-17T08:09:05.294Z,96800.53
2022-12-17T08:10:26.009Z,96788.22
2022-12-17T08:11:46.641Z,96778.59
2022-12-17T08:13:18.325Z,96782.56
2022-12-17T08:14:38.309Z,96781.84
2022-12-17T08:15:58.332Z,96773.75
2022-12-17T08:17:18.383Z,96765.66
2022-12-17T08:18:38.873Z,96769.22
2022-12-17T08:19:59.100Z,96755.03
2022-12-17T08:21:19.168Z,96763.13
2022-12-17T08:22:39.165Z,96767.81
2022-12-17T08:23:58.985Z,96769.78
2022-12-17T08:25:18.839Z,96775.81
2022-12-17T08:26:42.035Z,96762.69
2022-12-17T08:28:10.682Z,96776.94
2022-12-17T08:29:31.252Z,96790.56
2022-12-17T08:30:51.214Z,96779.25
2022-12-17T08:32:11.220Z,96779.78
2022-12-17T08:33:31.118Z,96793.38
2022-12-17T08:34:51.269Z,96772.88
2022-12-17T08:36:16.301Z,96774.97
2022-12-17T08:37:36.042Z,96775.16
2022-12-17T08:38:55.882Z,96767.81
2022-12-17T08:40:16.270Z,96761.53
2022-12-17T08:41:36.144Z,96766.22
2022-12-17T08:42:55.983Z,96763.13
2022-12-17T08:44:15.793Z,96759.50
2022-12-17T08:45:37.684Z,96750.22
2022-12-17T08:46:57.839Z,96737.50
2022-12-17T08:48:25.343Z,96751.78
2022-12-17T08:49:45.122Z,96744.19
2022-12-17T08:51:04.861Z,96756.88
2022-12-17T08:52:24.723Z,96751.41
2022-12-17T08:53:45.110Z,96750.50
2022-12-17T08:55:05.095Z,96751.84
2022-12-17T08:56:25.572Z,96746.34
2022-12-17T08:57:45.374Z,96752.19
2022-12-17T08:59:05.364Z,96749.19
2022-12-17T09:00:26.303Z,96754.00
2022-12-17T09:01:46.528Z,96752.69
2022-12-17T09:03:06.816Z,96762.09
2022-12-17T09:04:27.332Z,96755.81
2022-12-17T09:05:47.438Z,96761.06
2022-12-17T09:07:07.403Z,96751.91
2022-12-17T09:08:27.725Z,96742.03
2022-12-17T09:09:47.726Z,96745.28
2022-12-17T09:11:08.084Z,96748.88
2022-12-17T09:12:28.502Z,96746.75
2022-12-17T09:13:48.559Z,96741.91
2022-12-17T09:15:08.750Z,96739.09
2022-12-17T09:16:28.684Z,96731.47
2022-12-17T09:17:48.697Z,96726.53
2022-12-17T09:19:09.097Z,96720.63
2022-12-17T09:20:29.783Z,96720.69
2022-12-17T09:21:50.179Z,96714.63
2022-12-17T09:23:10.103Z,96725.22
2022-12-17T09:24:30.556Z,96731.50
2022-12-17T09:25:53.730Z,96733.63
2022-12-17T09:27:18.066Z,96734.22
2022-12-17T09:28:37.899Z,96733.09
2022-12-17T09:29:57.787Z,96728.66
2022-12-17T09:31:20.850Z,96734.13
2022-12-17T09:32:40.817Z,96730.63
2022-12-17T09:34:00.540Z,96717.25
2022-12-17T09:35:20.362Z,96717.84
2022-12-17T09:36:40.228Z,96733.53
2022-12-17T09:38:00.191Z,96727.31
2022-12-17T09:39:20.615Z,96733.53
2022-12-17T09:40:43.533Z,96738.06
2022-12-17T09:42:11.276Z,96736.41
2022-12-17T09:43:44.891Z,96743.47
2022-12-17T09:45:16.493Z,96739.22
2022-12-17T09:46:41.068Z,96731.47
2022-12-17T09:48:22.597Z,96728.81
2022-12-17T09:50:04.270Z,96738.41
2022-12-17T09:51:24.272Z,96736.16
2022-12-17T09:53:00.192Z,96739.69
2022-12-17T09:54:20.056Z,96742.13
2022-12-17T09:55:44.752Z,96751.66
2022-12-17T09:57:23.031Z,96755.47
2022-12-17T09:58:46.586Z,96753.97
2022-12-17T10:00:06.993Z,96740.78
2022-12-17T10:01:53.626Z,96743.22
2022-12-17T10:03:14.397Z,96747.69
2022-12-17T10:04:38.744Z,96741.91
2022-12-17T10:06:00.662Z,96740.81
2022-12-17T10:07:22.038Z,96743.88
2022-12-17T10:08:42.284Z,96753.75
2022-12-17T10:10:04.317Z,96753.03
2022-12-17T10:11:37.912Z,96763.06
2022-12-17T10:12:58.126Z,96776.53
2022-12-17T10:14:18.025Z,96782.59
2022-12-17T10:15:37.865Z,96790.81
2022-12-17T10:17:11.509Z,96800.22
2022-12-17T10:18:34.293Z,96791.44
2022-12-17T10:19:58.247Z,96800.69
2022-12-17T10:21:21.311Z,96808.13
2022-12-17T10:22:41.615Z,96810.53
2022-12-17T10:24:01.818Z,96810.63
2022-12-17T10:25:44.445Z,96796.66
2022-12-17T10:27:07.226Z,96790.44
2022-12-17T10:28:35.827Z,96784.72
2022-12-17T10:29:56.223Z,96786.50
2022-12-17T10:31:17.609Z,96790.66
2022-12-17T10:32:43.326Z,96787.66
2022-12-17T10:34:04.226Z,96785.44
2022-12-17T10:35:45.076Z,96783.78
2022-12-17T10:37:09.046Z,96793.06
2022-12-17T10:38:39.348Z,96804.69
2022-12-17T10:40:00.322Z,96809.66
2022-12-17T10:41:20.834Z,96813.16
2022-12-17T10:42:57.286Z,96809.34
2022-12-17T10:44:17.138Z,96803.97
2022-12-17T10:45:47.194Z,96798.47
2022-12-17T10:47:15.708Z,96789.16
2022-12-17T10:48:53.983Z,96798.47
2022-12-17T10:50:19.290Z,96791.81
2022-12-17T10:51:43.531Z,96783.59
2022-12-17T10:53:05.534Z,96788.94
2022-12-17T10:54:49.300Z,96790.44
2022-12-17T10:56:13.030Z,96785.47
2022-12-17T10:57:42.179Z,96785.81
2022-12-17T10:59:07.952Z,96789.28
2022-12-17T11:00:58.589Z,96786.63
2022-12-17T11:02:19.081Z,96781.63
2022-12-17T11:03:45.661Z,96776.63
2022-12-17T11:05:12.111Z,96768.16
2022-12-17T11:06:42.269Z,96770.16
2022-12-17T11:08:03.343Z,96770.97
2022-12-17T11:09:35.102Z,96772.16
2022-12-17T11:11:01.067Z,96765.31
2022-12-17T11:12:30.102Z,96771.53
2022-12-17T11:13:55.234Z,96777.75
2022-12-17T11:15:21.547Z,96785.16
2022-12-17T11:16:49.549Z,96786.75
2022-12-17T11:18:29.433Z,96780.22
2022-12-17T11:20:13.287Z,96778.63
2022-12-17T11:21:40.302Z,96779.44
2022-12-17T11:23:14.334Z,96786.81
2022-12-17T11:24:44.283Z,96790.28
2022-12-17T11:26:22.465Z,96794.59
2022-12-17T11:27:47.784Z,96795.47
2022-12-17T11:29:08.155Z,96787.38
2022-12-17T11:30:33.007Z,96797.09
2022-12-17T11:31:55.968Z,96790.47
2022-12-17T11:33:22.180Z,96794.31
2022-12-17T11:35:04.438Z,96788.88
2022-12-17T11:36:38.659Z,96784.97
2022-12-17T11:38:02.231Z,96788.88
2022-12-17T11:39:27.806Z,96785.81
2022-12-17T11:41:00.950Z,96790.00
2022-12-17T11:42:23.851Z,96792.66
2022-12-17T11:44:18.826Z,96785.69
2022-12-17T11:45:54.570Z,96785.63
2022-12-17T11:47:34.187Z,96787.53
2022-12-17T11:49:42.038Z,96781.72
2022-12-17T11:51:23.943Z,96782.44
2022-12-17T11:52:55.875Z,96777.06
2022-12-17T11:54:44.656Z,96767.38
2022-12-17T11:56:34.963Z,96771.31
2022-12-17T11:58:29.178Z,96770.97
2022-12-17T11:59:59.463Z,96769.34
2022-12-17T12:01:22.458Z,96774.00
2022-12-17T12:03:17.369Z,96781.72
2022-12-17T12:04:43.734Z,96790.75
2022-12-17T12:06:16.284Z,96801.91
2022-12-17T12:07:56.582Z,96795.66
2022-12-17T12:09:28.816Z,96790.28
2022-12-17T12:11:26.900Z,96797.59
2022-12-17T12:13:11.792Z,96804.31
2022-12-17T12:14:50.795Z,96796.94
2022-12-17T12:16:16.750Z,96789.47
2022-12-17T12:17:43.037Z,96780.09
2022-12-17T12:19:15.116Z,96785.88
2022-12-17T12:21:02.038Z,96779.28
2022-12-17T12:23:00.397Z,96771.53
2022-12-17T12:25:01.304Z,96769.88
2022-12-17T12:26:21.198Z,96767.50
2022-12-17T12:28:27.303Z,96768.63
2022-12-17T12:30:14.955Z,96778.69
2022-12-17T12:31:53.869Z,96787.69
2022-12-17T12:33:36.069Z,96785.34
2022-12-17T12:34:57.463Z,96794.91
2022-12-17T12:36:21.017Z,96789.97
2022-12-17T12:37:42.804Z,96796.94
2022-12-17T12:39:03.642Z,96798.81
2022-12-17T12:40:36.087Z,96784.53
2022-12-17T12:42:11.469Z,96797.59
2022-12-17T12:43:44.975Z,96818.72
2022-12-17T12:45:23.684Z,96806.00
2022-12-17T12:47:03.320Z,96768.31
2022-12-17T12:48:51.668Z,96747.38
2022-12-17T12:50:20.749Z,96754.22
2022-12-17T12:51:45.686Z,96773.50
2022-12-17T12:53:06.550Z,96773.13
2022-12-17T12:54:49.410Z,96785.50
2022-12-17T12:56:09.579Z,96782.78
2022-12-17T12:57:45.858Z,96781.22
2022-12-17T12:59:06.270Z,96799.09
2022-12-17T13:00:40.761Z,96816.22
2022-12-17T13:02:01.192Z,96820.38
2022-12-17T13:03:39.759Z,96816.53
2022-12-17T13:05:02.012Z,96820.38
2022-12-17T13:06:03.920Z,96830.78
2022-12-17T13:07:05.872Z,96827.25
2022-12-17T13:08:07.348Z,96834.97
2022-12-17T13:09:20.901Z,96846.88
2022-12-17T13:10:30.027Z,96860.22
2022-12-17T13:11:38.178Z,96864.38
2022-12-17T13:12:47.351Z,96880.22
2022-12-17T13:13:56.057Z,96888.75
2022-12-17T13:15:07.061Z,96896.97
2022-12-17T13:16:50.337Z,96916.34
2022-12-17T13:18:02.129Z,96910.53
2022-12-17T13:19:18.433Z,96870.00
2022-12-17T13:20:34.500Z,96837.75
2022-12-17T13:21:36.089Z,96838.38
2022-12-17T13:22:48.738Z,96849.91
2022-12-17T13:23:50.281Z,96866.16
2022-12-17T13:24:54.877Z,96872.94
2022-12-17T13:26:43.746Z,96890.13
2022-12-17T13:27:45.902Z,96894.38
2022-12-17T13:29:01.948Z,96890.47
2022-12-17T13:30:22.126Z,96884.47
2022-12-17T13:31:30.379Z,96880.00
2022-12-17T13:33:08.744Z,96883.72
2022-12-17T13:34:20.386Z,96877.97
2022-12-17T13:35:29.485Z,96868.16
2022-12-17T13:36:49.991Z,96862.75
2022-12-17T13:38:05.604Z,96871.53
2022-12-17T13:39:10.047Z,96876.53
2022-12-17T13:40:46.894Z,96869.84
2022-12-17T13:41:53.872Z,96852.81
2022-12-17T13:42:55.589Z,96835.78
2022-12-17T13:44:01.900Z,96835.34
2022-12-17T13:45:04.046Z,96840.75
2022-12-17T13:46:05.812Z,96857.38
2022-12-17T13:47:23.847Z,96849.69
2022-12-17T13:48:28.043Z,96849.41
2022-12-17T13:49:30.903Z,96837.47
2022-12-17T13:50:34.307Z,96831.75
2022-12-17T13:51:37.083Z,96843.03
2022-12-17T13:52:38.622Z,96836.47
2022-12-17T13:53:40.193Z,96837.78
2022-12-17T13:54:41.762Z,96836.13
2022-12-17T13:55:50.891Z,96840.72
2022-12-17T13:56:53.352Z,96846.84
2022-12-17T13:57:55.303Z,96856.84
2022-12-17T13:59:03.126Z,96855.72
2022-12-17T14:00:20.150Z,96858.44
2022-12-17T14:01:22.105Z,96858.50
2022-12-17T14:02:28.258Z,96858.50
2022-12-17T14:03:43.412Z,96862.41
2022-12-17T14:04:53.654Z,96863.19
2022-12-17T14:05:55.994Z,96867.03
2022-12-17T14:07:00.861Z,96865.34
2022-12-17T14:08:04.613Z,96857.56
2022-12-17T14:09:06.686Z,96867.59
2022-12-17T14:10:17.077Z,96861.41
2022-12-17T14:11:37.148Z,96869.13
2022-12-17T14:12:39.358Z,96868.34
2022-12-17T14:13:43.638Z,96866.88
2022-12-17T14:14:48.405Z,96864.59
2022-12-17T14:15:52.845Z,96859.97
2022-12-17T14:16:55.171Z,96870.06
2022-12-17T14:17:58.812Z,96869.28
2022-12-17T14:19:00.606Z,96868.16
2022-12-17T14:20:11.195Z,96872.41
2022-12-17T14:21:13.171Z,96875.56
2022-12-17T14:22:26.556Z,96875.56
2022-12-17T14:23:33.340Z,96876.25
2022-12-17T14:24:34.974Z,96876.94
2022-12-17T14:25:39.738Z,96876.88
2022-12-17T14:26:56.805Z,96883.50
2022-12-17T14:28:04.665Z,96880.84
2022-12-17T14:29:13.069Z,96877.81
2022-12-17T14:30:30.995Z,96872.50
2022-12-17T14:31:32.556Z,96875.56
2022-12-17T14:32:36.473Z,96881.72
2022-12-17T14:33:38.333Z,96881.88
2022-12-17T14:34:43.049Z,96882.66
2022-12-17T14:35:52.164Z,96885.06
2022-12-17T14:36:57.889Z,96885.13
2022-12-17T14:37:59.696Z,96889.81
2022-12-17T14:39:04.394Z,96888.28
2022-12-17T14:40:06.867Z,96889.59
2022-12-17T14:41:32.055Z,96883.34
2022-12-17T14:42:36.567Z,96889.47
2022-12-17T14:43:38.145Z,96887.19
2022-12-17T14:44:50.822Z,96890.25
2022-12-17T14:46:16.185Z,96892.88
2022-12-17T14:47:22.873Z,96896.19
2022-12-17T14:48:49.090Z,96907.03
2022-12-17T14:49:56.614Z,96910.88
2022-12-17T14:50:58.170Z,96906.09
2022-12-17T14:52:00.115Z,96905.75
2022-12-17T14:53:22.997Z,96913.44
2022-12-17T14:54:25.851Z,96915.41
2022-12-17T14:55:30.847Z,96918.19
2022-12-17T14:56:32.477Z,96918.97
2022-12-17T14:57:34.024Z,96910.19
2022-12-17T14:58:45.462Z,96912.63
2022-12-17T14:59:47.194Z,96914.16
2022-12-17T15:00:50.675Z,96907.91
2022-12-17T15:02:00.456Z,96907.97
2022-12-17T15:03:02.301Z,96910.50
2022-12-17T15:04:04.137Z,96908.28
2022-12-17T15:05:05.951Z,96913.69
2022-12-17T15:06:10.346Z,96912.91
2022-12-17T15:07:18.097Z,96914.19
2022-12-17T15:08:21.441Z,96911.19
2022-12-17T15:09:23.048Z,96915.44
2022-12-17T15:10:24.649Z,96916.31
2022-12-17T15:11:26.188Z,96918.63
2022-12-17T15:12:27.885Z,96917.72
2022-12-17T15:13:29.428Z,96932.34
2022-12-17T15:14:30.971Z,96928.53
2022-12-17T15:15:32.476Z,96922.34
2022-12-17T15:16:34.091Z,96928.53
2022-12-17T15:17:35.666Z,96929.38
2022-12-17T15:18:37.715Z,96931.00
2022-12-17T15:19:39.486Z,96928.34
2022-12-17T15:20:41.210Z,96930.72
2022-12-17T15:21:42.766Z,96938.31
2022-12-17T15:22:44.816Z,96941.72
2022-12-17T15:23:47.541Z,96945.72
2022-12-17T15:24:49.437Z,96933.63
2022-12-17T15:25:52.620Z,96937.03
2022-12-17T15:26:54.738Z,96942.88
2022-12-17T15:27:56.445Z,96933.97
2022-12-17T15:28:58.038Z,96943.44
2022-12-17T15:29:59.592Z,96940.72
2022-12-17T15:31:01.281Z,96928.81
2022-12-17T15:32:03.478Z,96937.97
2022-12-17T15:33:05.072Z,96938.16
2022-12-17T15:34:06.638Z,96936.47
2022-12-17T15:35:10.179Z,96930.97
2022-12-17T15:36:12.712Z,96936.03
2022-12-17T15:37:17.021Z,96936.47
2022-12-17T15:38:20.270Z,96939.84
2022-12-17T15:39:21.767Z,96940.44
2022-12-17T15:40:23.355Z,96943.00
2022-12-17T15:41:43.435Z,96948.59
2022-12-17T15:43:06.332Z,96951.75
2022-12-17T15:44:08.517Z,96943.22
2022-12-17T15:45:10.213Z,96947.75
2022-12-17T15:46:12.531Z,96934.78